• Join FlightAware (Why Join?)
  • Login
  • US Flag 
07:02AM EDT


 

Airport Tracker/Info


-or-


 

Live Flight TrackerFlight Track Log ✈ SWA771 ✈ 11-May-2013 ✈ KTPA - KDEN

Flight Track Log - Related Links

Times and Time Zones

All times are in EDT time to prevent confusion due to time zone crossing. See the SWA771 flight status page for this flight to view local times or setup timezone preferences in your user account.

Time Position Orientation Groundspeed Altitude Reporting Facility
EDT Latitude Longitude Course Direction KTS MPH feet Rate Location/Type
04:48PM 27.9667 -82.5500 180° South 175 201 800  Level Tampa TRACON
04:49PM 27.9167 -82.5500 180° South 191 220 2,400 1,860 Climbing Tampa TRACON
04:51PM 27.8847 -82.6178 242° Southwest 158 182 5,700 2,100 Climbing Jacksonville Center
04:52PM 27.9619 -82.6458 342° North 139 160 8,000 2,340 Climbing Jacksonville Center
04:53PM 28.0411 -82.6714 344° North 247 284 10,400 1,980 Climbing Jacksonville Center
04:54PM 28.1372 -82.6994 346° North 289 333 12,000 2,160 Climbing Jacksonville Center
04:55PM 28.2394 -82.7322 344° North 344 396 14,700 2,700 Climbing Jacksonville Center
04:56PM 28.3461 -82.7653 345° North 379 436 17,500 2,520 Climbing Jacksonville Center
04:57PM 28.4525 -82.7958 346° North 391 450 19,900 1,860 Climbing Jacksonville Center
04:58PM 28.5653 -82.8144 352° North 403 464 21,300 1,020 Climbing Jacksonville Center
04:59PM 28.6633 -82.8736 332° Northwest 403 464 22,000 300 Climbing Jacksonville Center
05:00PM 28.7572 -82.9400 328° Northwest 393 452 22,000  Level Jacksonville Center
05:01PM 28.8489 -83.0017 329° Northwest 387 445 22,000 600 Level Jacksonville Center
05:02PM 28.9428 -83.0681 328° Northwest 387 445 23,200 1,500 Climbing Jacksonville Center
05:03PM 29.0367 -83.1300 330° Northwest 387 445 25,000 1,560 Climbing Jacksonville Center
05:04PM 29.1347 -83.2017 327° Northwest 393 452 26,400 1,560 Climbing Jacksonville Center
05:05PM 29.2325 -83.2686 329° Northwest 410 472 28,200 1,620 Climbing Jacksonville Center
05:06PM 29.3325 -83.3403 328° Northwest 415 478 29,700 1,200 Climbing Jacksonville Center
05:07PM 29.4242 -83.4289 320° Northwest 421 484 30,600 1,020 Climbing Jacksonville Center
05:08PM 29.4883 -83.5272 307° West 421 484 31,800 1,380 Climbing Jacksonville Center
05:09PM 29.5567 -83.6400 305° West 427 491 33,400 1,440 Climbing Jacksonville Center
05:10PM 29.6247 -83.7528 305° West 432 497 34,700 1,260 Climbing Jacksonville Center
05:11PM 29.6928 -83.8656 305° West 432 497 36,000 600 Climbing Jacksonville Center
05:12PM 29.7567 -83.9717 305° West 424 488 36,000 600 Level Jacksonville Center
05:13PM 29.8247 -84.0847 305° West 418 481 37,200 960 Climbing Jacksonville Center
05:14PM 29.8986 -84.2008 306° West 418 481 38,000 360 Climbing Jacksonville Center
05:15PM 29.9622 -84.3047 305° West 413 475 38,000  Level Jacksonville Center
05:16PM 30.0217 -84.4111 303° West 408 470 38,000  Level Jacksonville Center
05:17PM 30.0828 -84.5153 304° West 403 464 38,000  Level Jacksonville Center
05:18PM 30.1442 -84.6172 305° West 398 458 38,000  Level Jacksonville Center
05:19PM 30.2075 -84.7192 306° West 398 458 38,000  Level Jacksonville Center
05:20PM 30.2686 -84.8214 305° West 398 458 38,000  Level Jacksonville Center
05:21PM 30.3275 -84.9261 303° West 398 458 38,000  Level Jacksonville Center
05:22PM 30.3906 -85.0261 306° West 393 452 38,000  Level Jacksonville Center
05:23PM 30.4494 -85.1286 304° West 393 452 38,000  Level Jacksonville Center
05:24PM 30.5042 -85.2192 305° West 388 447 38,000  Level Jacksonville Center
05:25PM 30.5628 -85.3194 304° West 388 447 38,000  Level Jacksonville Center
05:26PM 30.6214 -85.4225 303° West 383 441 38,000  Level Jacksonville Center
05:27PM 30.6819 -85.5231 305° West 378 435 38,000  Level Jacksonville Center
05:28PM 30.7406 -85.6214 305° West 378 435 38,000  Level Jacksonville Center
05:29PM 30.7986 -85.7294 302° West 378 435 38,000  Level Jacksonville Center
05:30PM 30.8589 -85.8303 305° West 384 442 38,000  Level Jacksonville Center
05:31PM 30.9192 -85.9364 304° West 384 442 38,000  Level Jacksonville Center
05:32PM 30.9792 -86.0425 303° West 384 442 38,000  Level Jacksonville Center
05:33PM 31.0392 -86.1439 305° West 384 442 38,000  Level Jacksonville Center
05:34PM 31.1011 -86.2578 302° West 384 442 38,000  Level Jacksonville Center
05:35PM 31.1628 -86.3642 304° West 389 448 38,000  Level Jacksonville Center
05:37PM 31.2803 -86.5706 304° West 384 442 38,000  Level Atlanta Center
05:38PM 31.3386 -86.6742 303° West 379 436 38,000  Level Atlanta Center
05:39PM 31.4094 -86.7858 307° West 384 442 38,000  Level Atlanta Center
05:40PM 31.4553 -86.8822 299° West 384 442 38,000  Level Atlanta Center
05:41PM 31.5153 -86.9864 304° West 379 436 38,000  Level Atlanta Center
05:42PM 31.5856 -87.0983 306° West 384 442 38,000  Level Atlanta Center
05:43PM 31.6414 -87.2025 302° West 389 448 38,000  Level Atlanta Center
05:44PM 31.6892 -87.2944 301° West 378 435 38,000  Level Atlanta Center
05:45PM 31.7550 -87.4069 305° West 378 435 38,000  Level Atlanta Center
05:46PM 31.8106 -87.5067 303° West 378 435 38,000  Level Atlanta Center
05:47PM 31.8683 -87.6117 303° West 378 435 38,000  Level Atlanta Center
05:48PM 31.9647 -87.7889 303° West 372 428 38,000  Level Memphis Center
05:49PM 32.0211 -87.8875 304° West 372 428 38,000  Level Memphis Center
05:50PM 32.0753 -87.9892 302° West 367 422 38,000  Level Memphis Center
05:51PM 32.1294 -88.0908 302° West 367 422 38,000  Level Memphis Center
05:52PM 32.1853 -88.1925 303° West 362 417 38,000  Level Memphis Center
05:53PM 32.2392 -88.2917 303° West 362 417 38,000  Level Memphis Center
05:54PM 32.2953 -88.3961 302° West 369 425 38,000  Level Memphis Center
05:55PM 32.3469 -88.4958 302° West 369 425 38,000  Level Memphis Center
05:56PM 32.3942 -88.5833 303° West 357 411 38,000  Level Memphis Center
05:57PM 32.4478 -88.6833 302° West 357 411 38,000  Level Memphis Center
05:58PM 32.5033 -88.7808 304° West 357 411 38,000  Level Memphis Center
05:59PM 32.5589 -88.8833 303° West 357 411 38,000  Level Memphis Center
06:00PM 32.6122 -88.9861 302° West 357 411 38,000  Level Memphis Center
06:01PM 32.6653 -89.0839 303° West 362 417 38,000  Level Memphis Center
06:02PM 32.7206 -89.1894 302° West 362 417 38,000  Level Memphis Center
06:03PM 32.7736 -89.2875 303° West 356 410 38,000  Level Memphis Center
06:04PM 32.8267 -89.3906 302° West 356 410 38,000  Level Memphis Center
06:05PM 32.8797 -89.4914 302° West 356 410 38,000  Level Memphis Center
06:06PM 32.9325 -89.5900 303° West 356 410 38,000  Level Memphis Center
06:07PM 32.9853 -89.6936 301° West 356 410 38,000  Level Memphis Center
06:08PM 33.0464 -89.8047 303° West 362 417 38,000  Level Memphis Center
06:09PM 33.0992 -89.9083 301° West 362 417 38,000  Level Memphis Center
06:10PM 33.1517 -90.0100 302° West 362 417 38,000  Level Memphis Center
06:11PM 33.2039 -90.1139 301° West 357 411 38,000  Level Memphis Center
06:12PM 33.2564 -90.2156 302° West 357 411 38,000  Level Memphis Center
06:13PM 33.3086 -90.3200 301° West 357 411 38,000  Level Memphis Center
06:14PM 33.3628 -90.4244 302° West 357 411 38,000  Level Memphis Center
06:15PM 33.4150 -90.5289 301° West 357 411 38,000  Level Memphis Center
06:16PM 33.4650 -90.6236 302° West 357 411 38,000  Level Memphis Center
06:17PM 33.5169 -90.7258 301° West 357 411 38,000  Level Memphis Center
06:18PM 33.5686 -90.8308 301° West 357 411 38,000  Level Memphis Center
06:19PM 33.6225 -90.9361 302° West 362 417 38,000  Level Memphis Center
06:20PM 33.6761 -91.0411 302° West 362 417 38,000  Level Memphis Center
06:21PM 33.7300 -91.1439 302° West 362 417 38,000  Level Memphis Center
06:22PM 33.7792 -91.2519 299° West 362 417 38,000  Level Memphis Center
06:23PM 33.8369 -91.3650 302° West 362 417 38,000  Level Memphis Center
06:24PM 33.8881 -91.4683 301° West 369 425 38,000  Level Memphis Center
06:25PM 33.9414 -91.5767 301° West 369 425 38,000  Level Memphis Center
06:27PM 33.9978 -91.6960 300° West  Level FlightAware Approximate
06:27PM 34.0561 -91.7939 300° West 384 442 38,000  Level Memphis Center
06:28PM 34.1047 -91.9000 299° West 378 435 38,000  Level Memphis Center
06:29PM 34.1578 -92.0114 300° West 378 435 38,000  Level Memphis Center
06:30PM 34.2106 -92.1203 300° West 378 435 38,000  Level Memphis Center
06:31PM 34.2569 -92.2167 300° West 378 435 38,000  Level Memphis Center
06:32PM 34.3117 -92.3261 301° West 378 435 38,000  Level Memphis Center
06:33PM 34.3664 -92.4356 301° West 384 442 38,000  Level Memphis Center
06:34PM 34.4206 -92.5503 300° West 384 442 38,000  Level Memphis Center
06:35PM 34.4728 -92.6622 300° West 384 442 38,000  Level Memphis Center
06:36PM 34.5292 -92.7722 302° West 384 442 38,000  Level Memphis Center
06:37PM 34.5811 -92.8897 298° West 384 442 38,000  Level Memphis Center
06:38PM 34.6353 -93.0000 301° West 384 442 38,000  Level Memphis Center
06:39PM 34.6892 -93.1078 301° West 379 436 38,000  Level Memphis Center
06:40PM 34.7428 -93.2256 299° West 384 442 38,000  Level Memphis Center
06:41PM 34.7967 -93.3386 300° West 384 442 38,000  Level Memphis Center
06:42PM 34.8500 -93.4519 300° West 384 442 38,000  Level Memphis Center
06:43PM 34.9056 -93.5678 300° West 384 442 38,000  Level Memphis Center
06:44PM 34.9589 -93.6839 299° West 384 442 38,000  Level Memphis Center
06:45PM 35.0100 -93.7950 299° West 384 442 38,000  Level Memphis Center
06:46PM 35.0672 -93.9164 300° West 390 449 38,000  Level Memphis Center
06:47PM 35.1203 -94.0306 300° West 395 455 38,000  Level Memphis Center
06:48PM 35.1750 -94.1497 299° West 402 463 38,000  Level Memphis Center
06:49PM 35.2297 -94.2692 299° West 402 463 38,000  Level Memphis Center
06:50PM 35.2822 -94.3886 298° West 402 463 38,000  Level Memphis Center
06:52PM 35.3919 -94.6253 300° West 398 458 38,000  Level Fort Worth Center
06:53PM 35.4444 -94.7406 299° West 398 458 38,000  Level Fort Worth Center
06:54PM 35.4969 -94.8614 298° West 393 452 38,000  Level Fort Worth Center
06:55PM 35.5536 -94.9794 301° West 393 452 38,000  Level Fort Worth Center
06:56PM 35.6081 -95.1006 299° West 400 460 38,000  Level Fort Worth Center
06:57PM 35.6300 -95.1453 301° West 402 463 38,000  Level Kansas City Center
06:58PM 35.6833 -95.2683 298° West 406 467 38,000  Level Kansas City Center
06:59PM 35.7392 -95.3928 299° West 409 471 38,000  Level Kansas City Center
07:00PM 35.7947 -95.5167 299° West 411 473 38,000  Level Kansas City Center
07:01PM 35.8494 -95.6417 298° West 412 474 38,000  Level Kansas City Center
07:02PM 35.9036 -95.7656 298° West 410 472 38,000  Level Kansas City Center
07:03PM 35.9575 -95.8903 298° West 408 470 38,000  Level Kansas City Center
07:04PM 36.0231 -96.0381 299° West 407 468 38,000  Level Kansas City Center
07:05PM 36.0764 -96.1611 298° West 405 466 38,000  Level Kansas City Center
07:06PM 36.1311 -96.2847 299° West 406 467 38,000  Level Kansas City Center
07:07PM 36.1833 -96.4086 298° West 406 467 38,000  Level Kansas City Center
07:08PM 36.2356 -96.5311 298° West 404 465 38,000  Level Kansas City Center
07:09PM 36.2894 -96.6547 298° West 405 466 38,000  Level Kansas City Center
07:10PM 36.3408 -96.7733 298° West 402 463 38,000  Level Kansas City Center
07:11PM 36.3928 -96.8975 297° West 405 466 38,000  Level Kansas City Center
07:12PM 36.4458 -97.0214 298° West 407 468 38,000  Level Kansas City Center
07:13PM 36.5092 -97.1708 298° West 409 471 38,000  Level Kansas City Center
07:14PM 36.5625 -97.2981 298° West 415 478 38,000  Level Kansas City Center
07:15PM 36.6156 -97.4264 297° West 418 481 38,000  Level Kansas City Center
07:16PM 36.6611 -97.5383 297° West 418 481 38,000  Level Kansas City Center
07:17PM 36.7239 -97.6872 298° West 408 470 38,000  Level Kansas City Center
07:18PM 36.7789 -97.8156 298° West 404 465 38,000  Level Kansas City Center
07:19PM 36.8275 -97.9358 297° West 403 464 38,000  Level Kansas City Center
07:20PM 36.8772 -98.0581 297° West 399 459 38,000  Level Kansas City Center
07:21PM 36.9300 -98.1856 297° West 405 466 38,000  Level Kansas City Center
07:22PM 36.9808 -98.3106 297° West 406 467 38,000  Level Kansas City Center
07:23PM 37.0331 -98.4392 297° West 405 466 38,000  Level Kansas City Center
07:24PM 37.0825 -98.5606 297° West 402 463 38,000  Level Kansas City Center
07:25PM 37.1317 -98.6833 297° West 399 459 38,000  Level Kansas City Center
07:26PM 37.1814 -98.8056 297° West 396 456 38,000  Level Kansas City Center
07:28PM 37.2294 -98.9297 296° West 395 455 38,000  Level Kansas City Center
07:29PM 37.2889 -99.0778 297° West 395 455 38,000  Level Kansas City Center
07:30PM 37.3358 -99.2000 296° West 393 452 38,000  Level Kansas City Center
07:31PM 37.3858 -99.3242 297° West 395 455 38,000  Level Kansas City Center
07:32PM 37.4358 -99.4494 297° West 400 460 38,000  Level Kansas City Center
07:33PM 37.4886 -99.5875 296° West 398 458 38,000  Level Kansas City Center
07:34PM 37.5364 -99.7081 297° West 401 461 38,000  Level Kansas City Center
07:35PM 37.5847 -99.8303 297° West 405 466 38,000  Level Kansas City Center
07:36PM 37.6392 -99.9711 296° West 404 465 38,000  Level Kansas City Center
07:37PM 37.6864 -100.0919 296° West 402 463 38,000  Level Kansas City Center
07:38PM 37.7389 -100.2317 295° West 397 457 38,000  Level Kansas City Center
07:39PM 37.7853 -100.3536 296° West 402 463 38,000  Level Kansas City Center
07:40PM 37.8325 -100.4772 296° West 408 470 38,000  Level Kansas City Center
07:41PM 37.8869 -100.6206 296° West 409 471 38,000  Level Kansas City Center
07:42PM 37.9339 -100.7442 296° West 410 472 38,000  Level Kansas City Center
07:43PM 37.9869 -100.8894 295° West 410 472 38,000  Level Kansas City Center
07:44PM 38.0336 -101.0139 295° West 410 472 38,000  Level Kansas City Center
07:45PM 38.0903 -101.1575 297° West 410 472 38,000  Level Kansas City Center
07:46PM 38.1417 -101.2775 299° West 407 468 38,000  Level Denver Center
07:47PM 38.1989 -101.4189 297° West 406 467 38,000 -300 Level Denver Center
07:48PM 38.2489 -101.5392 298° West 404 465 37,400 -1,260 Descending Denver Center
07:49PM 38.3000 -101.6656 297° West 420 483 35,500 -2,100 Descending Denver Center
07:50PM 38.3608 -101.8131 298° West 423 487 33,200 -1,740 Descending Denver Center
07:51PM 38.4117 -101.9408 297° West 424 488 32,000 -600 Descending Denver Center
07:52PM 38.4550 -102.0481 297° West 428 493 32,000  Level Denver Center
07:53PM 38.5225 -102.2178 297° West 417 480 32,000 -360 Level Denver Center
07:54PM 38.5722 -102.3383 298° West 404 465 31,300 -960 Descending Denver Center
07:55PM 38.6258 -102.4767 296° West 392 451 30,100 -1,080 Descending Denver Center
07:56PM 38.6717 -102.5917 297° West 382 440 29,200 -1,080 Descending Denver Center
07:57PM 38.7247 -102.7269 297° West 381 438 28,000 -1,080 Descending Denver Center
07:58PM 38.7669 -102.8383 296° West 376 433 27,100 -1,020 Descending Denver Center
07:59PM 38.8172 -102.9675 297° West 365 420 26,000 -1,080 Descending Denver Center
08:00PM 38.8611 -103.0786 297° West 365 420 25,000 -1,020 Descending Denver Center
08:01PM 38.9028 -103.1867 296° West 357 411 24,000 -960 Descending Denver Center
08:02PM 38.9447 -103.2939 297° West 352 405 23,100 -1,080 Descending Denver Center
08:03PM 38.9914 -103.4144 297° West 341 392 21,900 -1,140 Descending Denver Center
08:04PM 39.0364 -103.5342 296° West 333 383 20,800 -1,020 Descending Denver Center
08:05PM 39.0750 -103.6333 297° West 326 375 19,900 -960 Descending Denver Center
08:06PM 39.1119 -103.7347 295° West 328 377 18,900 -1,080 Descending Denver Center
08:07PM 39.1564 -103.8489 297° West 325 374 17,800 -900 Descending Denver Center
08:08PM 39.1919 -103.9428 296° West 317 365 17,100 -780 Descending Denver Center
08:09PM 39.2336 -104.0519 296° West 310 357 16,300 -1,320 Descending Denver Center
08:10PM 39.2761 -104.1472 300° West 310 357 14,500 -1,200 Descending Denver Center
08:11PM 39.3075 -104.2381 294° West 288 331 13,900 -540 Descending Denver Center
08:12PM 39.3139 -104.3308 275° West 263 303 13,500 -480 Descending Denver Center
08:14PM 39.3414 -104.4111 294° West 236 272 13,000 -840 Descending Denver Center
08:15PM 39.3714 -104.4850 298° West 234 269 11,800 -1,140 Descending Denver Center
08:16PM 39.4186 -104.5381 319° Northwest 234 269 10,700 -1,260 Descending Denver Center
08:17PM 39.4767 -104.5711 336° Northwest 229 264 9,300 -840 Descending Denver Center
08:18PM 39.5425 -104.5986 342° North 232 267 9,000 -180 Descending Denver Center
08:19PM 39.6061 -104.6158 348° North 233 268 9,000 -180 Level Denver Center
08:20PM 39.6700 -104.6364 346° North 236 272 8,700 -480 Descending Denver Center
08:21PM 39.7300 -104.6581 344° North 205 236 8,000 -1,080 Descending Denver Center
08:22PM 39.7861 -104.6617 357° North 169 194 6,300 -1,320 Descending Denver Center
08:23PM 39.8292 -104.6606 North 158 182 5,400 -900 Descending Denver Center
08:25PM 39.8500 -104.6667 North  Level FlightAware Approximate
08:32PM 39.8617 -104.6732 North  Level Estimated
08:33PM 39.8617 -104.6732 North  Level Estimated